sensor_id;sensor_type;location;lat;lon;timestamp;P1;durP1;ratioP1;P2;durP2;ratioP2
74309;SDS011;62722;51.142;17.052;2023-03-14T00:01:19;12.65;;;5.80;;
74309;SDS011;62722;51.142;17.052;2023-03-14T00:03:46;11.02;;;5.22;;
74309;SDS011;62722;51.142;17.052;2023-03-14T00:06:14;10.02;;;4.60;;
74309;SDS011;62722;51.142;17.052;2023-03-14T00:08:42;12.27;;;5.00;;
74309;SDS011;62722;51.142;17.052;2023-03-14T00:11:10;10.60;;;5.35;;
74309;SDS011;62722;51.142;17.052;2023-03-14T00:13:40;9.40;;;4.50;;
74309;SDS011;62722;51.142;17.052;2023-03-14T00:16:09;9.23;;;4.75;;
74309;SDS011;62722;51.142;17.052;2023-03-14T00:18:39;8.75;;;4.57;;
74309;SDS011;62722;51.142;17.052;2023-03-14T00:21:07;9.35;;;4.97;;
74309;SDS011;62722;51.142;17.052;2023-03-14T00:23:36;11.88;;;5.30;;
74309;SDS011;62722;51.142;17.052;2023-03-14T00:26:07;9.40;;;4.93;;
74309;SDS011;62722;51.142;17.052;2023-03-14T00:28:36;10.15;;;5.07;;
74309;SDS011;62722;51.142;17.052;2023-03-14T00:31:04;11.40;;;5.25;;
74309;SDS011;62722;51.142;17.052;2023-03-14T00:33:34;12.95;;;5.75;;
74309;SDS011;62722;51.142;17.052;2023-03-14T00:36:02;17.45;;;6.40;;
74309;SDS011;62722;51.142;17.052;2023-03-14T00:38:32;17.85;;;7.80;;
74309;SDS011;62722;51.142;17.052;2023-03-14T00:41:01;22.63;;;8.75;;
74309;SDS011;62722;51.142;17.052;2023-03-14T00:43:30;32.53;;;13.80;;
74309;SDS011;62722;51.142;17.052;2023-03-14T00:45:57;29.92;;;13.55;;
74309;SDS011;62722;51.142;17.052;2023-03-14T00:48:25;9.93;;;5.00;;
74309;SDS011;62722;51.142;17.052;2023-03-14T00:50:53;10.25;;;5.00;;
74309;SDS011;62722;51.142;17.052;2023-03-14T00:53:21;13.20;;;5.13;;
74309;SDS011;62722;51.142;17.052;2023-03-14T00:55:48;16.92;;;8.23;;
74309;SDS011;62722;51.142;17.052;2023-03-14T00:58:17;23.42;;;10.88;;
74309;SDS011;62722;51.142;17.052;2023-03-14T01:00:45;20.48;;;10.98;;
74309;SDS011;62722;51.142;17.052;2023-03-14T01:03:13;10.30;;;5.30;;
74309;SDS011;62722;51.142;17.052;2023-03-14T01:05:41;8.88;;;3.70;;
74309;SDS011;62722;51.142;17.052;2023-03-14T01:08:10;10.13;;;3.90;;
74309;SDS011;62722;51.142;17.052;2023-03-14T01:10:38;5.88;;;3.03;;
74309;SDS011;62722;51.142;17.052;2023-03-14T01:13:06;7.78;;;3.90;;
74309;SDS011;62722;51.142;17.052;2023-03-14T01:15:33;9.20;;;3.72;;
74309;SDS011;62722;51.142;17.052;2023-03-14T01:18:02;8.93;;;4.03;;
74309;SDS011;62722;51.142;17.052;2023-03-14T01:20:30;7.57;;;4.00;;
74309;SDS011;62722;51.142;17.052;2023-03-14T01:22:57;7.25;;;3.40;;
74309;SDS011;62722;51.142;17.052;2023-03-14T01:25:26;7.05;;;3.58;;
74309;SDS011;62722;51.142;17.052;2023-03-14T01:27:53;8.57;;;3.40;;
74309;SDS011;62722;51.142;17.052;2023-03-14T01:30:21;6.93;;;3.72;;
74309;SDS011;62722;51.142;17.052;2023-03-14T01:32:48;7.65;;;3.53;;
74309;SDS011;62722;51.142;17.052;2023-03-14T01:35:15;6.82;;;3.72;;
74309;SDS011;62722;51.142;17.052;2023-03-14T01:37:43;7.00;;;3.45;;
74309;SDS011;62722;51.142;17.052;2023-03-14T01:40:10;8.20;;;3.17;;
74309;SDS011;62722;51.142;17.052;2023-03-14T01:42:46;5.95;;;2.92;;
74309;SDS011;62722;51.142;17.052;2023-03-14T01:48:14;5.82;;;3.38;;
74309;SDS011;62722;51.142;17.052;2023-03-14T01:50:41;7.78;;;3.42;;
74309;SDS011;62722;51.142;17.052;2023-03-14T01:53:08;6.60;;;3.47;;
74309;SDS011;62722;51.142;17.052;2023-03-14T01:55:36;6.88;;;3.30;;
74309;SDS011;62722;51.142;17.052;2023-03-14T01:58:05;5.93;;;3.72;;
74309;SDS011;62722;51.142;17.052;2023-03-14T02:00:32;7.25;;;4.35;;
74309;SDS011;62722;51.142;17.052;2023-03-14T02:03:00;7.05;;;3.92;;
74309;SDS011;62722;51.142;17.052;2023-03-14T02:05:31;7.95;;;3.45;;
74309;SDS011;62722;51.142;17.052;2023-03-14T02:08:02;7.65;;;3.60;;
74309;SDS011;62722;51.142;17.052;2023-03-14T02:10:33;9.25;;;4.53;;
74309;SDS011;62722;51.142;17.052;2023-03-14T02:13:05;5.47;;;3.25;;
74309;SDS011;62722;51.142;17.052;2023-03-14T02:15:33;5.82;;;3.45;;
74309;SDS011;62722;51.142;17.052;2023-03-14T02:18:02;6.78;;;3.63;;
74309;SDS011;62722;51.142;17.052;2023-03-14T02:20:30;6.88;;;3.60;;
74309;SDS011;62722;51.142;17.052;2023-03-14T02:23:04;5.57;;;3.67;;
74309;SDS011;62722;51.142;17.052;2023-03-14T02:25:35;6.60;;;3.58;;
74309;SDS011;62722;51.142;17.052;2023-03-14T02:28:09;6.10;;;3.60;;
74309;SDS011;62722;51.142;17.052;2023-03-14T02:30:37;6.95;;;3.72;;
74309;SDS011;62722;51.142;17.052;2023-03-14T02:33:06;8.02;;;3.83;;
74309;SDS011;62722;51.142;17.052;2023-03-14T02:35:35;7.65;;;3.90;;
74309;SDS011;62722;51.142;17.052;2023-03-14T02:38:07;6.03;;;3.47;;
74309;SDS011;62722;51.142;17.052;2023-03-14T02:40:41;6.82;;;3.50;;
74309;SDS011;62722;51.142;17.052;2023-03-14T02:43:10;6.78;;;3.05;;
74309;SDS011;62722;51.142;17.052;2023-03-14T02:45:39;5.05;;;3.25;;
74309;SDS011;62722;51.142;17.052;2023-03-14T02:48:11;6.05;;;3.00;;
74309;SDS011;62722;51.142;17.052;2023-03-14T02:50:42;6.53;;;2.95;;
74309;SDS011;62722;51.142;17.052;2023-03-14T02:53:13;5.22;;;2.92;;
74309;SDS011;62722;51.142;17.052;2023-03-14T02:55:44;6.72;;;3.30;;
74309;SDS011;62722;51.142;17.052;2023-03-14T02:58:14;5.47;;;2.70;;
74309;SDS011;62722;51.142;17.052;2023-03-14T03:00:42;6.35;;;2.83;;
74309;SDS011;62722;51.142;17.052;2023-03-14T03:03:10;6.07;;;2.95;;
74309;SDS011;62722;51.142;17.052;2023-03-14T03:05:37;4.28;;;2.60;;
74309;SDS011;62722;51.142;17.052;2023-03-14T03:08:05;5.38;;;2.75;;
74309;SDS011;62722;51.142;17.052;2023-03-14T03:10:32;5.68;;;2.80;;
74309;SDS011;62722;51.142;17.052;2023-03-14T03:13:00;5.63;;;2.92;;
74309;SDS011;62722;51.142;17.052;2023-03-14T03:15:28;6.88;;;2.92;;
74309;SDS011;62722;51.142;17.052;2023-03-14T03:17:56;6.57;;;3.38;;
74309;SDS011;62722;51.142;17.052;2023-03-14T03:20:24;5.28;;;3.35;;
74309;SDS011;62722;51.142;17.052;2023-03-14T03:22:51;5.50;;;2.78;;
74309;SDS011;62722;51.142;17.052;2023-03-14T03:25:19;5.93;;;2.90;;
74309;SDS011;62722;51.142;17.052;2023-03-14T03:27:46;3.97;;;2.53;;
74309;SDS011;62722;51.142;17.052;2023-03-14T03:30:13;5.35;;;2.78;;
74309;SDS011;62722;51.142;17.052;2023-03-14T03:32:43;4.97;;;2.33;;
74309;SDS011;62722;51.142;17.052;2023-03-14T03:35:10;4.63;;;2.40;;
74309;SDS011;62722;51.142;17.052;2023-03-14T03:37:38;5.60;;;2.83;;
74309;SDS011;62722;51.142;17.052;2023-03-14T03:40:05;6.20;;;2.60;;
74309;SDS011;62722;51.142;17.052;2023-03-14T03:42:34;6.63;;;3.05;;
74309;SDS011;62722;51.142;17.052;2023-03-14T03:45:02;6.75;;;2.78;;
74309;SDS011;62722;51.142;17.052;2023-03-14T03:47:31;6.35;;;2.55;;
74309;SDS011;62722;51.142;17.052;2023-03-14T03:49:59;3.97;;;2.20;;
74309;SDS011;62722;51.142;17.052;2023-03-14T03:52:28;5.57;;;3.00;;
74309;SDS011;62722;51.142;17.052;2023-03-14T03:54:55;6.85;;;2.85;;
74309;SDS011;62722;51.142;17.052;2023-03-14T03:57:22;6.30;;;2.70;;
74309;SDS011;62722;51.142;17.052;2023-03-14T03:59:50;6.22;;;2.75;;
74309;SDS011;62722;51.142;17.052;2023-03-14T04:02:17;7.72;;;3.08;;
74309;SDS011;62722;51.142;17.052;2023-03-14T04:04:44;5.03;;;2.65;;
74309;SDS011;62722;51.142;17.052;2023-03-14T04:07:13;4.70;;;2.85;;
74309;SDS011;62722;51.142;17.052;2023-03-14T04:09:40;4.53;;;2.50;;
74309;SDS011;62722;51.142;17.052;2023-03-14T04:12:08;5.20;;;2.88;;
74309;SDS011;62722;51.142;17.052;2023-03-14T04:14:36;5.55;;;2.47;;
74309;SDS011;62722;51.142;17.052;2023-03-14T04:17:03;6.43;;;2.85;;
74309;SDS011;62722;51.142;17.052;2023-03-14T04:19:31;4.35;;;2.40;;
74309;SDS011;62722;51.142;17.052;2023-03-14T04:21:58;6.13;;;2.72;;
74309;SDS011;62722;51.142;17.052;2023-03-14T04:24:27;7.03;;;2.33;;
74309;SDS011;62722;51.142;17.052;2023-03-14T04:26:55;5.63;;;2.58;;
74309;SDS011;62722;51.142;17.052;2023-03-14T04:29:22;4.50;;;2.50;;
74309;SDS011;62722;51.142;17.052;2023-03-14T04:31:50;5.63;;;2.78;;
74309;SDS011;62722;51.142;17.052;2023-03-14T04:34:17;5.53;;;2.60;;
74309;SDS011;62722;51.142;17.052;2023-03-14T04:36:45;4.55;;;2.47;;
74309;SDS011;62722;51.142;17.052;2023-03-14T04:39:12;4.80;;;2.30;;
74309;SDS011;62722;51.142;17.052;2023-03-14T04:41:41;5.50;;;2.80;;
74309;SDS011;62722;51.142;17.052;2023-03-14T04:44:08;5.00;;;2.97;;
74309;SDS011;62722;51.142;17.052;2023-03-14T04:46:36;5.70;;;2.40;;
74309;SDS011;62722;51.142;17.052;2023-03-14T04:49:03;3.97;;;2.83;;
74309;SDS011;62722;51.142;17.052;2023-03-14T04:51:30;5.88;;;2.47;;
74309;SDS011;62722;51.142;17.052;2023-03-14T04:53:58;5.32;;;2.88;;
74309;SDS011;62722;51.142;17.052;2023-03-14T04:56:26;6.82;;;3.63;;
74309;SDS011;62722;51.142;17.052;2023-03-14T04:58:55;8.10;;;3.65;;
74309;SDS011;62722;51.142;17.052;2023-03-14T05:01:22;5.65;;;3.33;;
74309;SDS011;62722;51.142;17.052;2023-03-14T05:03:50;7.80;;;4.60;;
74309;SDS011;62722;51.142;17.052;2023-03-14T05:06:17;13.57;;;7.00;;
74309;SDS011;62722;51.142;17.052;2023-03-14T05:08:44;10.43;;;5.93;;
74309;SDS011;62722;51.142;17.052;2023-03-14T05:11:12;21.60;;;10.90;;
74309;SDS011;62722;51.142;17.052;2023-03-14T05:13:39;12.55;;;6.20;;
74309;SDS011;62722;51.142;17.052;2023-03-14T05:16:09;14.70;;;6.85;;
74309;SDS011;62722;51.142;17.052;2023-03-14T05:18:37;6.45;;;3.10;;
74309;SDS011;62722;51.142;17.052;2023-03-14T05:21:05;11.70;;;4.03;;
74309;SDS011;62722;51.142;17.052;2023-03-14T05:23:32;5.90;;;3.00;;
74309;SDS011;62722;51.142;17.052;2023-03-14T05:26:00;7.38;;;3.83;;
74309;SDS011;62722;51.142;17.052;2023-03-14T05:28:27;5.50;;;2.95;;
74309;SDS011;62722;51.142;17.052;2023-03-14T05:30:55;5.03;;;2.97;;
74309;SDS011;62722;51.142;17.052;2023-03-14T05:33:23;5.82;;;3.53;;
74309;SDS011;62722;51.142;17.052;2023-03-14T05:35:51;6.90;;;3.30;;
74309;SDS011;62722;51.142;17.052;2023-03-14T05:38:18;6.38;;;3.88;;
74309;SDS011;62722;51.142;17.052;2023-03-14T05:40:45;6.15;;;3.60;;
74309;SDS011;62722;51.142;17.052;2023-03-14T05:43:12;6.65;;;3.38;;
74309;SDS011;62722;51.142;17.052;2023-03-14T05:45:41;4.80;;;3.08;;
74309;SDS011;62722;51.142;17.052;2023-03-14T05:48:09;5.85;;;3.10;;
74309;SDS011;62722;51.142;17.052;2023-03-14T05:50:38;8.93;;;3.35;;
74309;SDS011;62722;51.142;17.052;2023-03-14T05:53:05;5.28;;;3.00;;
74309;SDS011;62722;51.142;17.052;2023-03-14T05:55:33;6.40;;;3.13;;
74309;SDS011;62722;51.142;17.052;2023-03-14T05:58:00;6.50;;;2.85;;
74309;SDS011;62722;51.142;17.052;2023-03-14T06:00:28;6.50;;;3.05;;
74309;SDS011;62722;51.142;17.052;2023-03-14T06:02:55;7.07;;;3.10;;
74309;SDS011;62722;51.142;17.052;2023-03-14T06:05:22;5.90;;;3.00;;
74309;SDS011;62722;51.142;17.052;2023-03-14T06:07:51;5.78;;;3.45;;
74309;SDS011;62722;51.142;17.052;2023-03-14T06:10:18;5.90;;;3.25;;
74309;SDS011;62722;51.142;17.052;2023-03-14T06:12:46;5.03;;;3.03;;
74309;SDS011;62722;51.142;17.052;2023-03-14T06:15:14;5.57;;;3.05;;
74309;SDS011;62722;51.142;17.052;2023-03-14T06:17:42;5.95;;;3.25;;
74309;SDS011;62722;51.142;17.052;2023-03-14T06:20:10;5.65;;;3.28;;
74309;SDS011;62722;51.142;17.052;2023-03-14T06:22:37;6.10;;;3.10;;
74309;SDS011;62722;51.142;17.052;2023-03-14T06:25:08;7.80;;;3.17;;
74309;SDS011;62722;51.142;17.052;2023-03-14T06:27:35;5.70;;;3.50;;
74309;SDS011;62722;51.142;17.052;2023-03-14T06:30:03;5.32;;;3.20;;
74309;SDS011;62722;51.142;17.052;2023-03-14T06:34:58;6.30;;;3.30;;
74309;SDS011;62722;51.142;17.052;2023-03-14T06:37:26;8.15;;;3.53;;
74309;SDS011;62722;51.142;17.052;2023-03-14T06:39:54;7.68;;;3.22;;
74309;SDS011;62722;51.142;17.052;2023-03-14T06:42:23;6.50;;;2.97;;
74309;SDS011;62722;51.142;17.052;2023-03-14T06:44:51;6.45;;;3.20;;
74309;SDS011;62722;51.142;17.052;2023-03-14T06:47:18;6.28;;;3.10;;
74309;SDS011;62722;51.142;17.052;2023-03-14T06:49:46;6.80;;;3.35;;
74309;SDS011;62722;51.142;17.052;2023-03-14T06:52:13;5.63;;;2.83;;
74309;SDS011;62722;51.142;17.052;2023-03-14T06:54:41;5.85;;;3.10;;
74309;SDS011;62722;51.142;17.052;2023-03-14T06:57:09;5.35;;;2.97;;
74309;SDS011;62722;51.142;17.052;2023-03-14T06:59:38;6.00;;;3.50;;
74309;SDS011;62722;51.142;17.052;2023-03-14T07:02:07;5.30;;;3.00;;
74309;SDS011;62722;51.142;17.052;2023-03-14T07:04:37;6.55;;;3.20;;
74309;SDS011;62722;51.142;17.052;2023-03-14T07:07:04;7.35;;;3.42;;
74309;SDS011;62722;51.142;17.052;2023-03-14T07:09:32;6.80;;;3.50;;
74309;SDS011;62722;51.142;17.052;2023-03-14T07:12:00;6.25;;;3.10;;
74309;SDS011;62722;51.142;17.052;2023-03-14T07:14:28;6.40;;;3.20;;
74309;SDS011;62722;51.142;17.052;2023-03-14T07:16:57;5.90;;;3.83;;
74309;SDS011;62722;51.142;17.052;2023-03-14T07:19:25;5.72;;;3.33;;
74309;SDS011;62722;51.142;17.052;2023-03-14T07:21:52;6.20;;;2.90;;
74309;SDS011;62722;51.142;17.052;2023-03-14T07:24:19;5.93;;;3.20;;
74309;SDS011;62722;51.142;17.052;2023-03-14T07:26:47;7.03;;;3.30;;
74309;SDS011;62722;51.142;17.052;2023-03-14T07:29:14;6.18;;;3.35;;
74309;SDS011;62722;51.142;17.052;2023-03-14T07:31:41;9.15;;;3.60;;
74309;SDS011;62722;51.142;17.052;2023-03-14T07:34:10;7.35;;;3.42;;
74309;SDS011;62722;51.142;17.052;2023-03-14T07:36:37;9.57;;;3.80;;
74309;SDS011;62722;51.142;17.052;2023-03-14T07:39:05;8.65;;;3.40;;
74309;SDS011;62722;51.142;17.052;2023-03-14T07:41:32;7.45;;;3.63;;
74309;SDS011;62722;51.142;17.052;2023-03-14T07:44:00;9.75;;;3.50;;
74309;SDS011;62722;51.142;17.052;2023-03-14T07:46:27;6.30;;;3.22;;
74309;SDS011;62722;51.142;17.052;2023-03-14T07:48:55;6.63;;;3.13;;
74309;SDS011;62722;51.142;17.052;2023-03-14T07:51:24;6.57;;;3.20;;
74309;SDS011;62722;51.142;17.052;2023-03-14T07:53:51;5.68;;;3.20;;
74309;SDS011;62722;51.142;17.052;2023-03-14T07:56:18;7.85;;;4.50;;
74309;SDS011;62722;51.142;17.052;2023-03-14T07:58:46;9.43;;;3.80;;
74309;SDS011;62722;51.142;17.052;2023-03-14T08:01:14;6.80;;;3.67;;
74309;SDS011;62722;51.142;17.052;2023-03-14T08:03:41;10.20;;;5.00;;
74309;SDS011;62722;51.142;17.052;2023-03-14T08:06:09;7.38;;;4.03;;
74309;SDS011;62722;51.142;17.052;2023-03-14T08:08:38;8.35;;;4.50;;
74309;SDS011;62722;51.142;17.052;2023-03-14T08:11:06;7.95;;;4.32;;
74309;SDS011;62722;51.142;17.052;2023-03-14T08:13:34;7.32;;;4.32;;
74309;SDS011;62722;51.142;17.052;2023-03-14T08:16:02;8.93;;;3.35;;
74309;SDS011;62722;51.142;17.052;2023-03-14T08:18:30;8.35;;;3.08;;
74309;SDS011;62722;51.142;17.052;2023-03-14T08:20:58;6.63;;;3.30;;
74309;SDS011;62722;51.142;17.052;2023-03-14T08:23:25;7.65;;;3.20;;
74309;SDS011;62722;51.142;17.052;2023-03-14T08:25:54;7.25;;;3.47;;
74309;SDS011;62722;51.142;17.052;2023-03-14T08:28:21;10.35;;;5.05;;
74309;SDS011;62722;51.142;17.052;2023-03-14T08:30:49;7.80;;;3.15;;
74309;SDS011;62722;51.142;17.052;2023-03-14T08:33:16;5.97;;;3.33;;
74309;SDS011;62722;51.142;17.052;2023-03-14T08:35:43;6.47;;;3.30;;
74309;SDS011;62722;51.142;17.052;2023-03-14T08:38:11;7.80;;;3.78;;
74309;SDS011;62722;51.142;17.052;2023-03-14T08:40:38;5.85;;;3.40;;
74309;SDS011;62722;51.142;17.052;2023-03-14T08:43:07;5.85;;;3.40;;
74309;SDS011;62722;51.142;17.052;2023-03-14T08:45:34;7.35;;;3.78;;
74309;SDS011;62722;51.142;17.052;2023-03-14T08:48:01;7.07;;;3.72;;
74309;SDS011;62722;51.142;17.052;2023-03-14T08:50:28;6.47;;;3.78;;
74309;SDS011;62722;51.142;17.052;2023-03-14T08:52:56;7.28;;;3.88;;
74309;SDS011;62722;51.142;17.052;2023-03-14T08:55:25;8.73;;;4.47;;
74309;SDS011;62722;51.142;17.052;2023-03-14T08:57:53;8.75;;;4.70;;
74309;SDS011;62722;51.142;17.052;2023-03-14T09:00:22;9.90;;;4.90;;
74309;SDS011;62722;51.142;17.052;2023-03-14T09:02:49;13.32;;;6.40;;
74309;SDS011;62722;51.142;17.052;2023-03-14T09:05:17;9.82;;;4.38;;
74309;SDS011;62722;51.142;17.052;2023-03-14T09:07:44;7.22;;;3.88;;
74309;SDS011;62722;51.142;17.052;2023-03-14T09:10:11;6.25;;;3.70;;
74309;SDS011;62722;51.142;17.052;2023-03-14T09:12:39;6.72;;;3.72;;
74309;SDS011;62722;51.142;17.052;2023-03-14T09:15:07;5.85;;;3.38;;
74309;SDS011;62722;51.142;17.052;2023-03-14T09:17:36;6.75;;;3.35;;
74309;SDS011;62722;51.142;17.052;2023-03-14T09:20:04;7.07;;;4.40;;
74309;SDS011;62722;51.142;17.052;2023-03-14T09:22:34;8.10;;;4.25;;
74309;SDS011;62722;51.142;17.052;2023-03-14T09:25:02;8.70;;;4.00;;
74309;SDS011;62722;51.142;17.052;2023-03-14T09:27:30;7.90;;;4.15;;
74309;SDS011;62722;51.142;17.052;2023-03-14T09:29:57;7.40;;;3.53;;
74309;SDS011;62722;51.142;17.052;2023-03-14T09:32:24;7.07;;;3.80;;
74309;SDS011;62722;51.142;17.052;2023-03-14T09:34:53;8.35;;;4.30;;
74309;SDS011;62722;51.142;17.052;2023-03-14T09:37:20;7.28;;;4.13;;
74309;SDS011;62722;51.142;17.052;2023-03-14T09:39:50;9.88;;;4.32;;
74309;SDS011;62722;51.142;17.052;2023-03-14T09:42:19;7.82;;;4.43;;
74309;SDS011;62722;51.142;17.052;2023-03-14T09:47:20;10.43;;;5.82;;
74309;SDS011;62722;51.142;17.052;2023-03-14T09:49:49;8.50;;;4.45;;
74309;SDS011;62722;51.142;17.052;2023-03-14T09:52:19;9.50;;;4.82;;
74309;SDS011;62722;51.142;17.052;2023-03-14T09:54:52;12.82;;;6.55;;
74309;SDS011;62722;51.142;17.052;2023-03-14T09:57:24;10.48;;;5.55;;
74309;SDS011;62722;51.142;17.052;2023-03-14T09:59:53;8.60;;;4.53;;
74309;SDS011;62722;51.142;17.052;2023-03-14T10:02:24;8.40;;;3.80;;
74309;SDS011;62722;51.142;17.052;2023-03-14T10:07:29;6.25;;;3.58;;
74309;SDS011;62722;51.142;17.052;2023-03-14T10:09:59;6.15;;;3.90;;
74309;SDS011;62722;51.142;17.052;2023-03-14T10:12:30;7.93;;;4.25;;
74309;SDS011;62722;51.142;17.052;2023-03-14T10:15:02;6.35;;;4.00;;
74309;SDS011;62722;51.142;17.052;2023-03-14T10:17:37;7.43;;;4.10;;
74309;SDS011;62722;51.142;17.052;2023-03-14T10:20:06;8.60;;;4.78;;
74309;SDS011;62722;51.142;17.052;2023-03-14T10:22:54;10.93;;;5.38;;
74309;SDS011;62722;51.142;17.052;2023-03-14T10:25:25;6.35;;;4.35;;
74309;SDS011;62722;51.142;17.052;2023-03-14T10:27:54;8.27;;;3.92;;
74309;SDS011;62722;51.142;17.052;2023-03-14T10:30:29;7.63;;;4.43;;
74309;SDS011;62722;51.142;17.052;2023-03-14T10:33:07;7.15;;;4.43;;
74309;SDS011;62722;51.142;17.052;2023-03-14T10:35:36;6.00;;;3.58;;
74309;SDS011;62722;51.142;17.052;2023-03-14T10:38:10;8.00;;;3.75;;
74309;SDS011;62722;51.142;17.052;2023-03-14T10:40:40;7.78;;;3.65;;
74309;SDS011;62722;51.142;17.052;2023-03-14T10:43:15;7.80;;;4.38;;
74309;SDS011;62722;51.142;17.052;2023-03-14T10:45:51;9.48;;;4.40;;
74309;SDS011;62722;51.142;17.052;2023-03-14T10:48:25;8.10;;;4.20;;
74309;SDS011;62722;51.142;17.052;2023-03-14T10:50:58;8.43;;;3.95;;
74309;SDS011;62722;51.142;17.052;2023-03-14T10:53:36;7.10;;;3.88;;
74309;SDS011;62722;51.142;17.052;2023-03-14T10:56:07;7.78;;;4.22;;
74309;SDS011;62722;51.142;17.052;2023-03-14T10:58:40;8.95;;;4.10;;
74309;SDS011;62722;51.142;17.052;2023-03-14T11:01:12;9.00;;;3.90;;
74309;SDS011;62722;51.142;17.052;2023-03-14T11:03:53;9.05;;;4.07;;
74309;SDS011;62722;51.142;17.052;2023-03-14T11:06:24;10.65;;;4.03;;
74309;SDS011;62722;51.142;17.052;2023-03-14T11:09:02;7.18;;;4.40;;
74309;SDS011;62722;51.142;17.052;2023-03-14T11:11:37;9.23;;;4.00;;
74309;SDS011;62722;51.142;17.052;2023-03-14T11:14:14;6.95;;;4.05;;
74309;SDS011;62722;51.142;17.052;2023-03-14T11:16:51;8.00;;;3.97;;
74309;SDS011;62722;51.142;17.052;2023-03-14T11:22:14;10.88;;;5.07;;
74309;SDS011;62722;51.142;17.052;2023-03-14T11:24:52;9.02;;;3.28;;
74309;SDS011;62722;51.142;17.052;2023-03-14T11:27:31;6.25;;;3.15;;
74309;SDS011;62722;51.142;17.052;2023-03-14T11:30:13;5.22;;;3.00;;
74309;SDS011;62722;51.142;17.052;2023-03-14T11:32:45;4.95;;;3.13;;
74309;SDS011;62722;51.142;17.052;2023-03-14T11:35:16;7.07;;;3.20;;
74309;SDS011;62722;51.142;17.052;2023-03-14T11:37:50;6.85;;;3.40;;
74309;SDS011;62722;51.142;17.052;2023-03-14T11:40:23;5.53;;;3.65;;
74309;SDS011;62722;51.142;17.052;2023-03-14T11:43:04;8.20;;;3.22;;
74309;SDS011;62722;51.142;17.052;2023-03-14T11:45:38;6.20;;;3.40;;
74309;SDS011;62722;51.142;17.052;2023-03-14T11:48:15;5.88;;;3.92;;
74309;SDS011;62722;51.142;17.052;2023-03-14T11:50:48;7.25;;;3.30;;
74309;SDS011;62722;51.142;17.052;2023-03-14T11:53:19;5.07;;;2.92;;
74309;SDS011;62722;51.142;17.052;2023-03-14T11:55:54;7.32;;;3.35;;
74309;SDS011;62722;51.142;17.052;2023-03-14T11:58:23;6.68;;;3.00;;
74309;SDS011;62722;51.142;17.052;2023-03-14T12:00:53;5.53;;;2.95;;
74309;SDS011;62722;51.142;17.052;2023-03-14T12:03:24;4.82;;;3.00;;
74309;SDS011;62722;51.142;17.052;2023-03-14T12:05:58;4.30;;;2.20;;
74309;SDS011;62722;51.142;17.052;2023-03-14T12:08:44;5.90;;;2.55;;
74309;SDS011;62722;51.142;17.052;2023-03-14T12:11:19;5.20;;;2.70;;
74309;SDS011;62722;51.142;17.052;2023-03-14T12:13:55;5.15;;;2.65;;
74309;SDS011;62722;51.142;17.052;2023-03-14T12:16:27;7.45;;;3.83;;
74309;SDS011;62722;51.142;17.052;2023-03-14T12:19:12;6.88;;;3.33;;
74309;SDS011;62722;51.142;17.052;2023-03-14T12:21:56;9.73;;;4.75;;
74309;SDS011;62722;51.142;17.052;2023-03-14T12:24:33;7.53;;;3.72;;
74309;SDS011;62722;51.142;17.052;2023-03-14T12:27:04;7.68;;;3.50;;
74309;SDS011;62722;51.142;17.052;2023-03-14T12:32:24;10.45;;;4.05;;
74309;SDS011;62722;51.142;17.052;2023-03-14T12:34:52;6.97;;;3.58;;
74309;SDS011;62722;51.142;17.052;2023-03-14T12:37:22;8.85;;;4.32;;
74309;SDS011;62722;51.142;17.052;2023-03-14T12:40:03;8.85;;;4.50;;
74309;SDS011;62722;51.142;17.052;2023-03-14T12:42:45;8.35;;;4.70;;
74309;SDS011;62722;51.142;17.052;2023-03-14T12:45:25;8.63;;;4.88;;
74309;SDS011;62722;51.142;17.052;2023-03-14T12:48:06;6.13;;;3.83;;
74309;SDS011;62722;51.142;17.052;2023-03-14T12:50:46;8.75;;;4.75;;
74309;SDS011;62722;51.142;17.052;2023-03-14T12:53:33;9.23;;;4.88;;
74309;SDS011;62722;51.142;17.052;2023-03-14T13:02:01;8.90;;;4.10;;
74309;SDS011;62722;51.142;17.052;2023-03-14T13:04:43;8.45;;;3.90;;
74309;SDS011;62722;51.142;17.052;2023-03-14T13:07:12;9.73;;;3.85;;
74309;SDS011;62722;51.142;17.052;2023-03-14T13:09:55;7.18;;;3.78;;
74309;SDS011;62722;51.142;17.052;2023-03-14T13:12:29;10.45;;;4.72;;
74309;SDS011;62722;51.142;17.052;2023-03-14T13:15:14;6.30;;;3.78;;
74309;SDS011;62722;51.142;17.052;2023-03-14T13:17:45;17.48;;;5.93;;
74309;SDS011;62722;51.142;17.052;2023-03-14T13:20:16;9.02;;;4.57;;
74309;SDS011;62722;51.142;17.052;2023-03-14T13:22:48;8.75;;;4.45;;
74309;SDS011;62722;51.142;17.052;2023-03-14T13:25:17;15.68;;;5.93;;
74309;SDS011;62722;51.142;17.052;2023-03-14T13:27:46;17.42;;;6.85;;
74309;SDS011;62722;51.142;17.052;2023-03-14T13:30:18;11.07;;;5.28;;
74309;SDS011;62722;51.142;17.052;2023-03-14T13:32:50;10.10;;;4.80;;
74309;SDS011;62722;51.142;17.052;2023-03-14T13:35:21;36.92;;;11.48;;
74309;SDS011;62722;51.142;17.052;2023-03-14T13:37:54;20.58;;;7.00;;
74309;SDS011;62722;51.142;17.052;2023-03-14T13:40:25;22.40;;;8.55;;
74309;SDS011;62722;51.142;17.052;2023-03-14T13:43:03;11.15;;;4.63;;
74309;SDS011;62722;51.142;17.052;2023-03-14T13:45:42;10.02;;;3.63;;
74309;SDS011;62722;51.142;17.052;2023-03-14T13:48:11;7.15;;;3.40;;
74309;SDS011;62722;51.142;17.052;2023-03-14T13:50:52;8.10;;;3.92;;
74309;SDS011;62722;51.142;17.052;2023-03-14T13:53:22;6.65;;;3.72;;
74309;SDS011;62722;51.142;17.052;2023-03-14T13:55:50;8.48;;;3.80;;
74309;SDS011;62722;51.142;17.052;2023-03-14T13:58:25;10.27;;;5.00;;
74309;SDS011;62722;51.142;17.052;2023-03-14T14:01:00;9.57;;;4.15;;
74309;SDS011;62722;51.142;17.052;2023-03-14T14:03:33;13.70;;;5.28;;
74309;SDS011;62722;51.142;17.052;2023-03-14T14:06:05;7.60;;;4.00;;
74309;SDS011;62722;51.142;17.052;2023-03-14T14:08:39;8.98;;;3.67;;
74309;SDS011;62722;51.142;17.052;2023-03-14T14:11:08;11.30;;;5.10;;
74309;SDS011;62722;51.142;17.052;2023-03-14T14:13:46;7.93;;;4.00;;
74309;SDS011;62722;51.142;17.052;2023-03-14T14:16:17;19.20;;;7.40;;
74309;SDS011;62722;51.142;17.052;2023-03-14T14:18:51;16.65;;;6.80;;
74309;SDS011;62722;51.142;17.052;2023-03-14T14:21:19;14.05;;;5.85;;
74309;SDS011;62722;51.142;17.052;2023-03-14T14:23:47;22.45;;;8.82;;
74309;SDS011;62722;51.142;17.052;2023-03-14T14:26:16;13.85;;;5.97;;
74309;SDS011;62722;51.142;17.052;2023-03-14T14:28:45;21.48;;;7.93;;
74309;SDS011;62722;51.142;17.052;2023-03-14T14:31:20;13.23;;;6.03;;
74309;SDS011;62722;51.142;17.052;2023-03-14T14:33:54;19.48;;;6.65;;
74309;SDS011;62722;51.142;17.052;2023-03-14T14:36:23;13.77;;;5.60;;
74309;SDS011;62722;51.142;17.052;2023-03-14T14:38:53;10.90;;;4.68;;
74309;SDS011;62722;51.142;17.052;2023-03-14T14:41:26;15.68;;;6.32;;
74309;SDS011;62722;51.142;17.052;2023-03-14T14:46:25;16.20;;;6.10;;
74309;SDS011;62722;51.142;17.052;2023-03-14T14:48:55;17.40;;;6.05;;
74309;SDS011;62722;51.142;17.052;2023-03-14T14:51:24;22.63;;;8.20;;
74309;SDS011;62722;51.142;17.052;2023-03-14T14:54:01;24.55;;;7.63;;
74309;SDS011;62722;51.142;17.052;2023-03-14T15:01:32;29.45;;;8.10;;
74309;SDS011;62722;51.142;17.052;2023-03-14T15:04:01;21.20;;;8.10;;
74309;SDS011;62722;51.142;17.052;2023-03-14T15:06:36;32.17;;;10.52;;
74309;SDS011;62722;51.142;17.052;2023-03-14T15:09:04;51.40;;;15.75;;
74309;SDS011;62722;51.142;17.052;2023-03-14T15:11:32;24.02;;;8.05;;
74309;SDS011;62722;51.142;17.052;2023-03-14T15:13:59;6.65;;;4.10;;
74309;SDS011;62722;51.142;17.052;2023-03-14T15:16:28;17.45;;;6.70;;